Weather observations for the past three days for
Lago Vista TX, Rusty Allen Airport
Metric (Imperial)
Date Time (cdt) Wind (kph) Vis. (km) Weather Sky Cond. Temperature (ºC) Relative Humidity Wind Chill (°C) Heat Index (°C) Pressure Precipitation (cm)
Air Dwpt 6 hour altimeter (cm) sea level (mb) 1 hr 3 hr 6 hr
Max. Min.
01 06:35 Calm 16.09 Fair CLR 24.5 22.6 89% 25 76.4 0.0
01 06:15 SW 6 16.09 Fair CLR 24.7 22.5 88% 25 76.38 0.0
01 05:55 SW 9 16.09 Fair CLR 24.7 22.3 87% 25 76.38 0.0
01 05:35 SW 11 16.09 Fair CLR 25 22 83% 26 76.35 0.0
01 05:15 S 6 16.09 Fair CLR 24.7 22 85% 25 76.38 0.0
01 04:55 S 6 16.09 Fair CLR 24.9 21.7 82% 26 76.38 0.0
01 04:35 S 9 16.09 Fair CLR 25.2 21.5 80% 26 76.38 0.0
01 04:15 S 7 16.09 Fair CLR 25.3 21.7 81% 26 76.38 0.0
01 03:55 S 9 16.09 Fair CLR 25.5 21.7 80% 27 76.38 0.0
01 03:35 S 7 16.09 Fair CLR 25.6 21.7 79% 27 76.38 0.0
01 03:15 S 9 16.09 Fair CLR 25.8 21.5 77% 27 76.35 0.0
01 02:55 S 7 16.09 Fair CLR 26 21.3 75% 27 76.35 0.0
01 02:35 S 11 16.09 Fair CLR 26.4 21.1 73% 28 76.38 0.0
01 02:15 S 9 16.09 Fair CLR 26.6 21.1 72% 28 76.38 0.0
01 01:55 S 7 16.09 Fair CLR 26.7 21 71% 28 76.38 0.0
01 01:35 S 9 16.09 Fair CLR 27 20.9 69% 29 76.38 0.0
01 01:15 S 7 16.09 Fair CLR 27.4 20.8 67% 29 76.35 0.0
01 00:55 S 6 16.09 Fair CLR 27.7 20.9 34.2 27.7 67% 30 76.35 0.0
01 00:35 S 11 16.09 Fair CLR 28 21 66% 30 76.35 0.0
01 00:15 S 11 16.09 Fair CLR 28.2 20.9 65% 30 76.33 0.0
31 23:55 SE 15 16.09 Fair CLR 28.5 20.6 62% 31 76.3 0.0
31 23:35 SE 13 16.09 Fair CLR 29 20.4 60% 31 76.3 0.0
31 23:15 SE 15 16.09 Fair CLR 29.2 20 58% 31 76.3 0.0
31 22:55 SE 15 G 30 16.09 Fair CLR 29.5 19.3 54% 31 76.3 0.0
31 22:35 SE 15 G 30 16.09 Fair CLR 30 18.4 50% 31 76.3 0.0
31 22:15 SE 13 16.09 Fair CLR 30.2 16.7 44% 30 76.28 0.0
31 21:55 E 7 16.09 Fair CLR 29.9 16.4 44% 30 76.25 0.0
31 21:35 E 9 16.09 Fair CLR 30.1 16.2 43% 30 76.25 0.0
31 21:15 E 11 16.09 Fair CLR 30.4 16.2 42% 30 76.23 0.0
31 20:55 E 9 16.09 Fair CLR 30.8 16.1 41% 31 76.2 0.0
31 20:35 E 11 16.09 Fair CLR 30.8 15.8 40% 31 76.17 0.0
31 20:15 E 9 16.09 Fair CLR 31.3 15.7 39% 31 76.17 0.0
31 19:55 E 7 16.09 Fair CLR 31.9 16 38% 32 76.17 0.0
31 19:35 E 9 16.09 Fair CLR 32.7 16 37% 33 76.17 0.0
31 19:15 E 11 16.09 Partly Cloudy SCT075 SCT090 33.7 16 35% 34 76.17 0.0
31 18:35 SE 13 16.09 Mostly Cloudy SCT075 BKN090 34.7 16.8 34% 35 76.15 0.0
31 18:15 E 6 16.09 Mostly Cloudy BKN075 BKN100 35.4 16.8 33% 36 76.15 0.0
31 17:55 E 9 16.09 Mostly Cloudy BKN075 BKN085 35.1 16.6 33% 36 76.17 0.0
31 17:35 Calm 16.09 Partly Cloudy SCT075 SCT085 35.5 16.5 32% 36 76.17 0.0
31 17:15 S 11 16.09 Partly Cloudy SCT075 35.8 17 33% 37 76.17 0.0
31 16:55 E 9 16.09 Fair CLR 35.5 16.4 32% 36 76.17 0.0
31 16:35 S 11 16.09 Fair CLR 35.3 16.7 33% 36 76.2 0.0
31 16:15 E 13 16.09 Fair CLR 35 16.9 34% 36 76.23 0.0
31 15:55 SE 11 16.09 Fair CLR 34.8 17.1 35% 35 76.25 0.0
31 15:35 SE 11 16.09 Fair CLR 34.8 18.3 38% 36 76.28 0.0
31 15:15 SE 13 16.09 Fair CLR 34.8 18.4 38% 36 76.3 0.0
31 14:55 SE 9 16.09 Fair CLR 35 19.1 39% 37 76.33 0.0
31 14:35 SE 7 16.09 Partly Cloudy SCT060 34.7 18.4 38% 36 76.35 0.0
31 14:15 Calm 16.09 Partly Cloudy SCT050 33.6 19.2 43% 35 76.38 0.0
31 13:55 SE 9 16.09 Partly Cloudy SCT050 34.1 19.2 41% 36 76.4 0.0
31 13:35 S 15 16.09 Partly Cloudy SCT050 33.2 19.4 44% 35 76.4 0.0
31 13:15 SE 11 16.09 Fair CLR 33.1 19.7 45% 35 76.4 0.0
31 12:55 SE 13 G 26 16.09 Partly Cloudy SCT044 32.9 20.3 33.4 24 47% 35 76.43 0.0
31 12:35 SE 9 16.09 Partly Cloudy SCT040 32.6 20.3 48% 35 76.45 0.0
31 12:15 S 9 16.09 Partly Cloudy SCT038 31.9 20.9 52% 35 76.45 0.0
31 11:55 S 11 16.09 Fair CLR 30.9 20.6 54% 33 76.48 0.0
31 11:35 S 6 16.09 Partly Cloudy SCT029 31 21.6 57% 34 76.48 0.0
31 11:15 S 7 16.09 Partly Cloudy SCT027 30.2 21.9 61% 33 76.48 0.0
31 10:55 SE 7 16.09 Partly Cloudy SCT027 29.6 21.6 62% 32 76.48 0.0
31 10:35 SE 6 16.09 Partly Cloudy SCT023 29.6 22.5 66% 33 76.45 0.0
31 10:15 S 11 16.09 Partly Cloudy SCT021 28.6 22.4 69% 32 76.45 0.0
31 09:55 SW 15 16.09 Partly Cloudy SCT019 27.8 22.7 74% 31 76.45 0.0
31 09:35 S 13 16.09 Partly Cloudy SCT015 27.5 23.4 78% 31 76.43 0.0
31 09:15 S 13 16.09 Mostly Cloudy BKN013 26.9 23.5 82% 30 76.43 0.0
31 08:55 S 11 16.09 Partly Cloudy SCT011 26.1 23.9 88% 28 76.4 0.0
31 08:35 S 9 16.09 Fair CLR 25.7 24.1 91% 27 76.4 0.0
31 08:15 S 7 16.09 Fair CLR 25.4 24.2 93% 27 76.4 0.0
31 07:55 SW 7 16.09 Fair CLR 24.5 24.5 100% 24 76.38 0.0
31 07:35 S 7 16.09 Partly Cloudy SCT014 24 24 100% 23 76.38 0.0
31 07:15 S 6 16.09 Fair CLR 24 24 100% 23 76.35 0.0
31 06:55 S 7 16.09 Fair CLR 24 24 27.3 24 100% 23 76.35 0.0
31 06:35 S 7 16.09 Fair CLR 24.1 24 99% 23 76.35 0.0
31 06:15 S 7 16.09 Partly Cloudy SCT014 24.1 24 99% 23 76.35 0.0
31 05:55 S 9 16.09 Overcast OVC012 24.5 23.9 96% 24 76.35 0.0
31 05:35 S 9 16.09 Mostly Cloudy BKN012 24.5 23.7 95% 24 76.35 0.0
31 05:15 S 7 16.09 Mostly Cloudy BKN012 24.3 23.5 95% 24 76.35 0.0
31 04:55 S 7 16.09 Overcast OVC012 24.5 23.5 94% 24 76.35 0.0
31 04:35 SW 9 16.09 Mostly Cloudy BKN012 24.6 23.3 93% 25 76.35 0.0
31 04:15 S 11 16.09 Mostly Cloudy BKN012 24.7 23.2 91% 25 76.35 0.0
31 03:55 S 11 16.09 Partly Cloudy SCT012 24.7 22.7 89% 25 76.35 0.0
31 03:35 S 11 16.09 Fair CLR 25 22.2 85% 26 76.35 0.0
31 03:15 S 11 16.09 Fair CLR 25 21.8 82% 26 76.35 0.0
31 02:55 S 13 16.09 Fair CLR 25.5 21.6 79% 27 76.35 0.0
31 02:35 S 13 16.09 Fair CLR 25.6 21.5 78% 27 76.35 0.0
31 02:15 S 9 16.09 Fair CLR 26 21.4 76% 28 76.35 0.0
31 01:55 S 11 16.09 Fair CLR 26.2 21.1 74% 28 76.35 0.0
31 01:35 S 11 16.09 Fair CLR 26.5 21.3 73% 28 76.35 0.0
31 01:15 S 7 16.09 Fair CLR 27 21.5 72% 29 76.35 0.0
31 00:55 S 13 16.09 Fair CLR 27.3 21.6 33.8 27.3 71% 29 76.35 0.0
31 00:35 S 9 16.09 Fair CLR 27.5 21.7 71% 30 76.35 0.0
31 00:15 S 9 16.09 Fair CLR 28 21.5 68% 30 76.3 0.0
30 23:55 S 15 16.09 Fair CLR 28.2 21 65% 30 76.3 0.0
30 23:35 S 11 16.09 Fair CLR 28.6 21 64% 31 76.3 0.0
30 23:15 SE 19 16.09 Fair CLR 29 20.7 61% 31 76.3 0.0
30 22:55 SE 19 G 30 16.09 Fair CLR 29.2 20.5 59% 31 76.3 0.0
30 22:35 SE 15 G 28 16.09 Fair CLR 29.5 20.3 58% 32 76.28 0.0
30 22:15 SE 13 16.09 Partly Cloudy SCT075 30 20.2 56% 32 76.25 0.0
30 21:55 SE 7 16.09 Partly Cloudy SCT075 30.4 19.8 53% 32 76.25 0.0
30 21:35 SE 11 16.09 Partly Cloudy SCT075 SCT085 30.7 18.6 48% 32 76.23 0.0
30 21:15 E 11 16.09 Fair CLR 30.6 17.1 44% 31 76.2 0.0
30 20:55 SE 7 16.09 Fair CLR 30.9 17.1 44% 31 76.17 0.0
30 20:35 SE 9 16.09 Partly Cloudy SCT070 31.1 17.4 44% 32 76.15 0.0
30 20:15 SE 7 16.09 Partly Cloudy SCT070 31.6 17.5 43% 32 76.15 0.0
30 19:55 SE 7 16.09 Fair CLR 31.8 17.5 42% 32 76.15 0.0
30 19:35 SE 9 16.09 Fair CLR 32.6 17.4 40% 33 76.12 0.0
30 19:15 Calm 16.09 Fair CLR 33.3 17.3 38% 34 76.12 0.0
30 18:55 SE 7 16.09 Fair CLR 33.9 17.2 35.4 32.1 37% 35 76.12 0.0
30 18:35 SE 9 16.09 Fair CLR 34.2 17.2 36% 35 76.15 0.0
30 18:15 S 9 16.09 Fair CLR 34.5 17.5 36% 35 76.15 0.0
30 17:55 SE 6 16.09 Fair CLR 34.6 16.5 34% 35 76.15 0.0
30 17:35 S 9 16.09 Fair CLR 34.5 17.1 35% 35 76.15 0.0
30 17:15 S 11 16.09 Fair CLR 34.9 17.8 36% 36 76.17 0.0
30 16:55 SE 13 16.09 Fair CLR 34.9 17.9 36% 36 76.17 0.0
30 16:35 Calm 16.09 Partly Cloudy SCT060 35 18.5 38% 37 76.17 0.0
30 16:15 E 15 16.09 Partly Cloudy SCT060 34.9 18.2 37% 36 76.2 0.0
30 15:35 S 13 16.09 Partly Cloudy SCT060 34.9 19.1 39% 37 76.25 0.0
30 15:15 SW 13 16.09 Partly Cloudy SCT050 34.3 19.1 41% 36 76.25 0.0
30 14:55 S 11 16.09 Partly Cloudy SCT050 34.1 19.3 42% 36 76.28 0.0
30 14:35 SE 13 16.09 Partly Cloudy SCT050 33.8 19.6 43% 36 76.3 0.0
30 14:15 S 7 G 26 16.09 Fair CLR 33.9 19.8 43% 36 76.33 0.0
30 13:55 SE 13 G 26 16.09 Partly Cloudy SCT046 33.4 19.6 44% 35 76.35 0.0
30 13:35 SE 19 16.09 Partly Cloudy SCT046 33 19.9 46% 35 76.38 0.0
30 13:15 SE 9 G 26 16.09 Partly Cloudy SCT042 32.7 20.3 48% 35 76.4 0.0
30 12:55 SE 13 16.09 Partly Cloudy SCT040 31.9 20.5 32.1 23.8 51% 34 76.43 0.0
30 12:35 SE 13 16.09 Partly Cloudy SCT038 31.6 20.8 53% 34 76.45 0.0
30 12:15 Calm 16.09 Partly Cloudy SCT036 31.5 21 54% 34 76.48 0.0
30 11:55 S 7 16.09 Partly Cloudy SCT034 31.2 20.7 54% 34 76.48 0.0
30 11:35 S 13 16.09 Partly Cloudy SCT034 30.2 20.8 57% 33 76.48 0.0
30 11:15 SW 9 16.09 Fair CLR 29.8 20.6 58% 32 76.48 0.0
30 10:55 S 9 16.09 Fair CLR 29.1 20.8 61% 31 76.48 0.0
30 10:35 S 9 16.09 Fair CLR 28.9 21.3 64% 31 76.48 0.0
30 10:15 S 11 16.09 Fair CLR 28 22.1 70% 31 76.48 0.0
30 09:55 SW 17 16.09 Fair CLR 26.7 22 75% 29 76.48 0.0
30 09:35 SW 11 16.09 Fair CLR 26.5 22.1 77% 28 76.48 0.0
30 09:15 SW 11 16.09 Fair CLR 26 22.6 82% 28 76.48 0.0
30 08:55 SW 7 16.09 Fair CLR 25.2 22.7 86% 26 76.45 0.0
30 08:35 SW 9 16.09 Fair CLR 24.6 22.7 89% 25 76.45 0.0
30 08:15 SW 11 16.09 Fair CLR 24.5 22.8 90% 25 76.43 0.0
30 07:55 S 6 16.09 Fair CLR 24.1 22.7 92% 24 76.43 0.0
30 07:35 SW 13 16.09 Fair CLR 24 22.6 92% 23 76.4 0.0
30 07:15 SW 9 16.09 Fair CLR 23.8 22.5 92% 76.4 0.0
30 06:55 SW 15 16.09 Fair CLR 24 22.2 27.2 24 90% 24 76.4 0.0
30 06:35 S 7 16.09 Fair CLR 24.1 21.8 87% 24 76.38 0.0
30 06:15 SW 9 16.09 Fair CLR 24.4 21.5 84% 25 76.38 0.0
30 05:55 SW 15 16.09 Fair CLR 24.5 21.4 83% 25 76.35 0.0
30 05:35 SW 9 16.09 Fair CLR 24.5 21 81% 25 76.35 0.0
30 05:15 S 7 16.09 Fair CLR 24.5 20.7 79% 25 76.35 0.0
30 04:55 S 6 16.09 Fair CLR 24.4 20.6 79% 25 76.35 0.0
30 04:35 S 7 16.09 Fair CLR 24.6 20.5 78% 25 76.35 0.0
30 04:15 S 7 16.09 Fair CLR 24.8 20.4 77% 26 76.35 0.0
30 03:55 S 9 16.09 Fair CLR 25 20.4 76% 26 76.35 0.0
30 03:35 S 11 16.09 Fair CLR 25.2 20.5 75% 26 76.35 0.0
30 03:15 S 9 16.09 Fair CLR 25.3 20.7 76% 26 76.35 0.0
30 02:55 S 7 16.09 Fair CLR 25.5 20.5 74% 27 76.38 0.0
30 02:35 S 9 16.09 Fair CLR 26 20.3 71% 27 76.38 0.0
30 02:15 S 13 16.09 Fair CLR 26.2 20.6 71% 28 76.38 0.0
30 01:55 S 7 16.09 Fair CLR 26.5 21 72% 28 76.4 0.0
30 01:35 S 7 16.09 Fair CLR 26.7 21 71% 28 76.38 0.0
30 01:15 S 9 16.09 Fair CLR 27 21.1 70% 29 76.4 0.0
30 00:55 S 7 16.09 Fair CLR 27.2 21 33.7 27.2 69% 29 76.38 0.0
30 00:35 S 9 16.09 Fair CLR 27.6 21 67% 30 76.38 0.0
30 00:15 S 9 16.09 Fair CLR 28 21 66% 30 76.38 0.0
29 23:55 S 11 16.09 Fair CLR 28.3 21 65% 30 76.38 0.0
29 23:35 S 13 16.09 Fair CLR 28.7 20.8 62% 31 76.38 0.0
29 23:15 S 11 16.09 Fair CLR 29.1 20.5 60% 31 76.38 0.0
29 22:55 S 13 16.09 Fair CLR 29.5 20.4 58% 32 76.38 0.0
29 22:35 SE 13 16.09 Fair CLR 30 19.9 55% 32 76.38 0.0
29 22:15 SE 11 16.09 Fair CLR 30.1 18.5 50% 31 76.35 0.0
29 21:55 SE 11 16.09 Fair CLR 30.6 18.2 48% 32 76.35 0.0
29 21:35 E 9 16.09 Partly Cloudy SCT085 30.6 17.9 47% 31 76.3 0.0
29 21:15 SE 7 16.09 Partly Cloudy SCT070 SCT085 30.8 17.7 45% 31 76.28 0.0
29 20:55 Calm 16.09 Mostly Cloudy BKN070 BKN085 31.2 18.1 46% 32 76.25 0.0
29 20:35 SE 6 16.09 Mostly Cloudy BKN070 BKN095 31.4 18.3 46% 32 76.25 0.0
29 20:15 Calm 16.09 Partly Cloudy SCT070 31.2 18.6 47% 32 76.23 0.0
29 19:55 SE 7 16.09 Fair CLR 31.7 18.6 46% 33 76.23 0.0
29 19:35 S 6 16.09 Fair CLR 32.6 18.1 42% 34 76.25 0.0
29 19:15 S 6 16.09 Fair CLR 33.2 18 40% 34 76.23 0.0
29 18:55 SW 6 16.09 Fair CLR 33.7 17.6 35.5 32.5 38% 35 76.23 0.0
29 18:35 S 9 16.09 Fair CLR 34 17.4 37% 35 76.23 0.0
29 18:15 S 11 16.09 Fair CLR 34.6 17.5 36% 35 76.25 0.0
29 17:55 S 11 16.09 Fair CLR 34.3 17.7 37% 35 76.25 0.0
29 17:35 S 7 16.09 Fair CLR 34.9 18 37% 36 76.25 0.0
29 17:15 S 9 16.09 Partly Cloudy SCT065 34.3 18.2 38% 36 76.25 0.0
29 16:55 SE 13 16.09 Partly Cloudy SCT065 35.1 18.7 38% 37 76.28 0.0
29 16:35 Calm 16.09 Fair CLR 34.7 18.4 38% 36 76.3 0.0
29 16:15 S 15 16.09 Partly Cloudy SCT065 34.9 18.5 38% 36 76.3 0.0
29 15:55 S 7 16.09 Partly Cloudy SCT065 34.5 17.8 37% 36 76.33 0.0
29 15:35 S 13 16.09 Fair CLR 34.2 18.2 39% 35 76.35 0.0
29 15:15 S 11 16.09 Fair CLR 34.3 18.1 38% 35 76.38 0.0
29 14:55 SE 7 16.09 Fair CLR 34.1 18.6 40% 36 76.4 0.0
29 14:35 S 9 16.09 Partly Cloudy SCT050 34.2 19.2 41% 36 76.43 0.0
29 14:15 SE 13 16.09 Partly Cloudy SCT050 34.2 20.1 44% 37 76.45 0.0
29 13:55 SE 9 16.09 Fair CLR 33.4 19.8 45% 36 76.45 0.0
29 13:35 S 7 16.09 Fair CLR 33.5 20.4 46% 36 76.48 0.0
29 13:15 S 7 16.09 Fair CLR 32.8 20.5 48% 35 76.5 0.0
29 12:55 SE 11 16.09 Fair CLR 32.9 20.8 32.9 22 49% 36 76.5 0.0
29 12:35 E 11 16.09 Fair CLR 32.3 20.8 51% 35 76.53 0.0
29 12:15 SE 7 16.09 Partly Cloudy SCT034 32.3 21.8 54% 36 76.56 0.0
29 11:55 SE 9 16.09 Fair CLR 31.7 22.5 58% 36 76.58 0.0
29 11:35 SE 7 16.09 Fair CLR 30.4 21.9 60% 34 76.58 0.0
29 11:15 S 6 16.09 Fair CLR 29.5 21.7 63% 32 76.56 0.0
29 10:55 Calm 16.09 Fair CLR 29.4 21.9 64% 32 76.56 0.0
29 10:35 S 6 16.09 Fair CLR 28.9 22.5 68% 32 76.56 0.0
29 10:15 SW 7 16.09 Fair CLR 27.9 21.5 68% 30 76.56 0.0
29 09:55 Calm 16.09 Fair CLR 27.5 22.8 76% 30 76.56 0.0
29 09:35 Calm 16.09 Fair CLR 26.7 23.2 81% 29 76.53 0.0
29 09:15 Calm 16.09 Fair CLR 26.1 23.6 86% 28 76.53 0.0
29 08:55 S 6 16.09 Fair CLR 25.7 23.5 88% 27 76.53 0.0
29 08:35 S 6 16.09 Fair CLR 24.6 23 91% 25 76.53 0.0
29 08:15 Calm 16.09 Fair CLR 24.5 22.8 90% 25 76.5 0.0
29 07:55 Calm 16.09 Fair CLR 23.8 22.5 92% 76.5 0.0
29 07:35 Calm 16.09 Fair CLR 23.3 22.2 94% 76.5 0.0
29 07:15 SW 6 16.09 Fair CLR 22.8 22.5 98% 76.48 0.0
Date Time (cdt) Wind (kph) Vis. (km) Weather Sky Cond. Air Dwpt Max. Min. Relative Humidity Wind Chill (°C) Heat Index (°C) altimeter (cm) sea level (mb) 1 hr 3 hr 6 hr
6 hour
Temperature (ºC) Pressure Precipitation (cm)